Delaware, Ohio
Current Conditions -  °F | °C
As of 5:36 PM on Wednesday 22 Oct 2014 (Local Time) from KDLZ Reporting Station
Overcast Overcast  
Wind Chill: 44°   Ceiling: 2400
Heat Index: 46°   Visibility: 10mi
Dew Point: 39°   Wind: 6mph
Humidity: 76%   Direction: 330°NNW
Pressure: 30.27"   Gusts: NA
Location:  40.3°N, 83.06°W
Report Text: KDLZ 222136Z AUTO 33005KT 10SM BKN024 OVC029 08/04 A3027 RMK AO2
Loading
Personal Weather Stations






























Interactive Weather Map
Tropical Storm Tracking
New forecast layout! Learn more

10-Day Weather Forecast

Advertisements
Track Severe Weather on mobile